Terminal Aerodrome Forecast
Issued by NWS

Home | Current Version | Previous Version | Text Only | Print | Product List | Glossary On
Versions: 1 2 3 4 5 6 7 8 9 10 11 12 13 14 15 16 17 18
000
FTUS43 KMPX 070006 CCA
TAFRNH
TAF COR
KRNH 070006Z 0700/0724 35008KT 4SM FU SCT040 BKN060
     FM070600 34007KT 6SM FU SKC
     FM071400 01007KT 6SM FU FEW040=

USA.gov is the U.S. government's official web portal to all federal, state and local government web resources and services.